Oliver Springs, Tennessee
Current Conditions -  °F | °C
As of 4:53 PM on Sunday 23 Nov 2014 (Local Time) from KOQT Reporting Station
Light Rain Light Rain  
Wind Chill: 54°   Ceiling: 6500
Heat Index: 54°   Visibility: 10mi
Dew Point: 52°   Wind: 5mph
Humidity: 93%   Direction: 70°ENE
Pressure: 29.63"   Gusts: NA
Location:  36.04°N, 84.34°W
Report Text: KOQT 232153Z AUTO 07004KT 10SM -RA BKN065 OVC090 12/11 A2963 RMK AO2 SLP036 P0004 T01220111
Loading
Personal Weather Stations






























Interactive Weather Map New forecast layout! Learn more

10-Day Weather Forecast

Advertisements
Track Severe Weather on mobile